sensor_id;sensor_type;location;lat;lon;timestamp;P1;durP1;ratioP1;P2;durP2;ratioP2
11907;SDS011;6014;47.690;9.130;2023-07-29T00:00:27;28.70;;;21.02;;
11907;SDS011;6014;47.690;9.130;2023-07-29T00:02:55;23.60;;;14.82;;
11907;SDS011;6014;47.690;9.130;2023-07-29T00:05:37;19.35;;;13.23;;
11907;SDS011;6014;47.690;9.130;2023-07-29T00:08:06;21.60;;;13.20;;
11907;SDS011;6014;47.690;9.130;2023-07-29T00:10:35;21.20;;;12.32;;
11907;SDS011;6014;47.690;9.130;2023-07-29T00:13:04;13.90;;;9.45;;
11907;SDS011;6014;47.690;9.130;2023-07-29T00:15:38;12.98;;;7.97;;
11907;SDS011;6014;47.690;9.130;2023-07-29T00:18:06;9.40;;;6.88;;
11907;SDS011;6014;47.690;9.130;2023-07-29T00:20:34;8.63;;;5.88;;
11907;SDS011;6014;47.690;9.130;2023-07-29T00:23:04;9.70;;;4.55;;
11907;SDS011;6014;47.690;9.130;2023-07-29T00:25:32;13.25;;;7.07;;
11907;SDS011;6014;47.690;9.130;2023-07-29T00:28:00;13.60;;;7.78;;
11907;SDS011;6014;47.690;9.130;2023-07-29T00:30:28;17.58;;;10.60;;
11907;SDS011;6014;47.690;9.130;2023-07-29T00:32:56;20.50;;;11.65;;
11907;SDS011;6014;47.690;9.130;2023-07-29T00:35:24;21.02;;;14.30;;
11907;SDS011;6014;47.690;9.130;2023-07-29T00:37:53;23.70;;;15.13;;
11907;SDS011;6014;47.690;9.130;2023-07-29T00:40:22;21.80;;;14.40;;
11907;SDS011;6014;47.690;9.130;2023-07-29T00:42:50;26.90;;;15.02;;
11907;SDS011;6014;47.690;9.130;2023-07-29T00:45:28;22.70;;;14.20;;
11907;SDS011;6014;47.690;9.130;2023-07-29T00:47:59;18.23;;;12.77;;
11907;SDS011;6014;47.690;9.130;2023-07-29T00:50:30;19.48;;;11.27;;
11907;SDS011;6014;47.690;9.130;2023-07-29T00:55:35;17.45;;;9.73;;
11907;SDS011;6014;47.690;9.130;2023-07-29T00:58:03;15.45;;;9.35;;
11907;SDS011;6014;47.690;9.130;2023-07-29T01:00:31;11.75;;;8.45;;
11907;SDS011;6014;47.690;9.130;2023-07-29T01:02:59;18.48;;;9.73;;
11907;SDS011;6014;47.690;9.130;2023-07-29T01:05:30;13.15;;;7.72;;
11907;SDS011;6014;47.690;9.130;2023-07-29T01:08:12;14.65;;;7.22;;
11907;SDS011;6014;47.690;9.130;2023-07-29T01:10:51;15.00;;;7.03;;
11907;SDS011;6014;47.690;9.130;2023-07-29T01:13:30;12.18;;;6.07;;
11907;SDS011;6014;47.690;9.130;2023-07-29T01:16:05;6.88;;;4.22;;
11907;SDS011;6014;47.690;9.130;2023-07-29T01:18:39;7.45;;;4.50;;
11907;SDS011;6014;47.690;9.130;2023-07-29T01:21:07;8.43;;;4.70;;
11907;SDS011;6014;47.690;9.130;2023-07-29T01:23:38;8.02;;;3.70;;
11907;SDS011;6014;47.690;9.130;2023-07-29T01:26:06;6.53;;;3.47;;
11907;SDS011;6014;47.690;9.130;2023-07-29T01:28:34;6.95;;;3.95;;
11907;SDS011;6014;47.690;9.130;2023-07-29T01:31:08;10.70;;;5.70;;
11907;SDS011;6014;47.690;9.130;2023-07-29T01:33:42;11.02;;;6.25;;
11907;SDS011;6014;47.690;9.130;2023-07-29T01:36:18;9.40;;;5.72;;
11907;SDS011;6014;47.690;9.130;2023-07-29T01:38:50;10.55;;;5.97;;
11907;SDS011;6014;47.690;9.130;2023-07-29T01:41:20;9.95;;;5.43;;
11907;SDS011;6014;47.690;9.130;2023-07-29T01:43:48;9.80;;;4.72;;
11907;SDS011;6014;47.690;9.130;2023-07-29T01:46:17;8.90;;;4.90;;
11907;SDS011;6014;47.690;9.130;2023-07-29T01:48:45;10.15;;;4.60;;
11907;SDS011;6014;47.690;9.130;2023-07-29T01:51:13;11.45;;;4.93;;
11907;SDS011;6014;47.690;9.130;2023-07-29T01:53:41;5.85;;;3.65;;
11907;SDS011;6014;47.690;9.130;2023-07-29T01:56:11;6.10;;;2.90;;
11907;SDS011;6014;47.690;9.130;2023-07-29T01:58:39;5.40;;;2.97;;
11907;SDS011;6014;47.690;9.130;2023-07-29T02:01:07;6.82;;;2.83;;
11907;SDS011;6014;47.690;9.130;2023-07-29T02:03:35;7.30;;;2.90;;
11907;SDS011;6014;47.690;9.130;2023-07-29T02:06:03;5.25;;;3.47;;
11907;SDS011;6014;47.690;9.130;2023-07-29T02:08:31;6.60;;;3.45;;
11907;SDS011;6014;47.690;9.130;2023-07-29T02:10:59;5.85;;;3.63;;
11907;SDS011;6014;47.690;9.130;2023-07-29T02:13:29;5.03;;;2.65;;
11907;SDS011;6014;47.690;9.130;2023-07-29T02:15:57;5.38;;;2.70;;
11907;SDS011;6014;47.690;9.130;2023-07-29T02:18:25;6.55;;;3.40;;
11907;SDS011;6014;47.690;9.130;2023-07-29T02:20:53;7.75;;;3.72;;
11907;SDS011;6014;47.690;9.130;2023-07-29T02:23:21;6.90;;;4.30;;
11907;SDS011;6014;47.690;9.130;2023-07-29T02:25:49;5.50;;;3.33;;
11907;SDS011;6014;47.690;9.130;2023-07-29T02:28:18;6.95;;;3.40;;
11907;SDS011;6014;47.690;9.130;2023-07-29T02:30:48;5.85;;;2.65;;
11907;SDS011;6014;47.690;9.130;2023-07-29T02:33:39;6.30;;;3.15;;
11907;SDS011;6014;47.690;9.130;2023-07-29T02:36:07;6.28;;;3.13;;
11907;SDS011;6014;47.690;9.130;2023-07-29T02:38:35;5.88;;;3.22;;
11907;SDS011;6014;47.690;9.130;2023-07-29T02:41:14;5.78;;;3.25;;
11907;SDS011;6014;47.690;9.130;2023-07-29T02:43:43;7.25;;;2.88;;
11907;SDS011;6014;47.690;9.130;2023-07-29T02:46:17;6.03;;;2.58;;
11907;SDS011;6014;47.690;9.130;2023-07-29T02:48:45;7.25;;;3.40;;
11907;SDS011;6014;47.690;9.130;2023-07-29T02:51:13;6.38;;;2.92;;
11907;SDS011;6014;47.690;9.130;2023-07-29T02:53:49;7.68;;;3.05;;
11907;SDS011;6014;47.690;9.130;2023-07-29T02:56:17;5.30;;;2.80;;
11907;SDS011;6014;47.690;9.130;2023-07-29T02:58:45;6.57;;;3.20;;
11907;SDS011;6014;47.690;9.130;2023-07-29T03:01:22;5.80;;;3.33;;
11907;SDS011;6014;47.690;9.130;2023-07-29T03:03:51;8.15;;;2.80;;
11907;SDS011;6014;47.690;9.130;2023-07-29T03:06:19;6.28;;;2.97;;
11907;SDS011;6014;47.690;9.130;2023-07-29T03:08:47;6.03;;;2.72;;
11907;SDS011;6014;47.690;9.130;2023-07-29T03:11:16;14.52;;;2.72;;
11907;SDS011;6014;47.690;9.130;2023-07-29T03:13:44;4.93;;;2.35;;
11907;SDS011;6014;47.690;9.130;2023-07-29T03:16:13;5.32;;;2.88;;
11907;SDS011;6014;47.690;9.130;2023-07-29T03:18:43;5.93;;;3.10;;
11907;SDS011;6014;47.690;9.130;2023-07-29T03:23:43;5.38;;;2.70;;
11907;SDS011;6014;47.690;9.130;2023-07-29T03:26:11;5.78;;;3.03;;
11907;SDS011;6014;47.690;9.130;2023-07-29T03:28:39;7.95;;;2.97;;
11907;SDS011;6014;47.690;9.130;2023-07-29T03:31:09;5.47;;;2.70;;
11907;SDS011;6014;47.690;9.130;2023-07-29T03:33:37;5.00;;;2.75;;
11907;SDS011;6014;47.690;9.130;2023-07-29T03:36:07;5.63;;;2.78;;
11907;SDS011;6014;47.690;9.130;2023-07-29T03:38:35;6.25;;;2.58;;
11907;SDS011;6014;47.690;9.130;2023-07-29T03:41:07;4.20;;;2.30;;
11907;SDS011;6014;47.690;9.130;2023-07-29T03:46:08;5.38;;;2.75;;
11907;SDS011;6014;47.690;9.130;2023-07-29T03:48:38;6.05;;;2.95;;
11907;SDS011;6014;47.690;9.130;2023-07-29T03:51:07;6.00;;;2.72;;
11907;SDS011;6014;47.690;9.130;2023-07-29T03:53:35;5.50;;;2.90;;
11907;SDS011;6014;47.690;9.130;2023-07-29T03:56:04;4.57;;;2.50;;
11907;SDS011;6014;47.690;9.130;2023-07-29T03:58:32;7.40;;;3.05;;
11907;SDS011;6014;47.690;9.130;2023-07-29T04:01:00;6.18;;;3.20;;
11907;SDS011;6014;47.690;9.130;2023-07-29T04:03:28;4.65;;;2.70;;
11907;SDS011;6014;47.690;9.130;2023-07-29T04:05:57;5.53;;;3.15;;
11907;SDS011;6014;47.690;9.130;2023-07-29T04:08:26;5.10;;;2.80;;
11907;SDS011;6014;47.690;9.130;2023-07-29T04:10:54;6.78;;;3.28;;
11907;SDS011;6014;47.690;9.130;2023-07-29T04:13:22;4.88;;;2.70;;
11907;SDS011;6014;47.690;9.130;2023-07-29T04:15:50;6.28;;;3.13;;
11907;SDS011;6014;47.690;9.130;2023-07-29T04:18:19;7.78;;;3.00;;
11907;SDS011;6014;47.690;9.130;2023-07-29T04:20:47;5.75;;;2.72;;
11907;SDS011;6014;47.690;9.130;2023-07-29T04:23:15;7.10;;;3.28;;
11907;SDS011;6014;47.690;9.130;2023-07-29T04:25:45;5.13;;;2.60;;
11907;SDS011;6014;47.690;9.130;2023-07-29T04:28:13;9.35;;;2.78;;
11907;SDS011;6014;47.690;9.130;2023-07-29T04:30:41;6.13;;;2.92;;
11907;SDS011;6014;47.690;9.130;2023-07-29T04:33:09;5.65;;;2.78;;
11907;SDS011;6014;47.690;9.130;2023-07-29T04:35:37;8.98;;;3.35;;
11907;SDS011;6014;47.690;9.130;2023-07-29T04:38:05;6.13;;;3.42;;
11907;SDS011;6014;47.690;9.130;2023-07-29T04:40:34;8.00;;;3.38;;
11907;SDS011;6014;47.690;9.130;2023-07-29T04:43:03;7.03;;;3.25;;
11907;SDS011;6014;47.690;9.130;2023-07-29T04:45:31;6.53;;;3.00;;
11907;SDS011;6014;47.690;9.130;2023-07-29T04:47:59;5.30;;;2.78;;
11907;SDS011;6014;47.690;9.130;2023-07-29T04:50:27;6.40;;;3.35;;
11907;SDS011;6014;47.690;9.130;2023-07-29T04:52:55;7.28;;;3.15;;
11907;SDS011;6014;47.690;9.130;2023-07-29T04:55:23;6.78;;;2.92;;
11907;SDS011;6014;47.690;9.130;2023-07-29T04:57:51;6.05;;;3.35;;
11907;SDS011;6014;47.690;9.130;2023-07-29T05:00:21;5.57;;;3.17;;
11907;SDS011;6014;47.690;9.130;2023-07-29T05:02:49;5.20;;;3.00;;
11907;SDS011;6014;47.690;9.130;2023-07-29T05:05:17;6.40;;;3.50;;
11907;SDS011;6014;47.690;9.130;2023-07-29T05:07:45;7.13;;;3.58;;
11907;SDS011;6014;47.690;9.130;2023-07-29T05:10:13;5.47;;;3.15;;
11907;SDS011;6014;47.690;9.130;2023-07-29T05:12:42;6.63;;;3.72;;
11907;SDS011;6014;47.690;9.130;2023-07-29T05:15:10;6.60;;;3.08;;
11907;SDS011;6014;47.690;9.130;2023-07-29T05:17:39;7.47;;;3.70;;
11907;SDS011;6014;47.690;9.130;2023-07-29T05:20:09;5.90;;;3.50;;
11907;SDS011;6014;47.690;9.130;2023-07-29T05:22:37;6.95;;;3.40;;
11907;SDS011;6014;47.690;9.130;2023-07-29T05:25:06;6.93;;;2.95;;
11907;SDS011;6014;47.690;9.130;2023-07-29T05:27:34;6.20;;;3.20;;
11907;SDS011;6014;47.690;9.130;2023-07-29T05:30:03;6.22;;;3.65;;
11907;SDS011;6014;47.690;9.130;2023-07-29T05:32:31;6.68;;;4.03;;
11907;SDS011;6014;47.690;9.130;2023-07-29T05:35:00;7.70;;;3.85;;
11907;SDS011;6014;47.690;9.130;2023-07-29T05:37:29;6.57;;;3.28;;
11907;SDS011;6014;47.690;9.130;2023-07-29T05:39:57;8.48;;;3.67;;
11907;SDS011;6014;47.690;9.130;2023-07-29T05:42:25;7.80;;;3.90;;
11907;SDS011;6014;47.690;9.130;2023-07-29T05:45:04;5.55;;;3.10;;
11907;SDS011;6014;47.690;9.130;2023-07-29T05:47:33;7.38;;;3.17;;
11907;SDS011;6014;47.690;9.130;2023-07-29T05:50:03;6.20;;;3.38;;
11907;SDS011;6014;47.690;9.130;2023-07-29T05:52:32;5.80;;;3.38;;
11907;SDS011;6014;47.690;9.130;2023-07-29T05:55:00;6.55;;;3.30;;
11907;SDS011;6014;47.690;9.130;2023-07-29T06:00:19;6.35;;;3.42;;
11907;SDS011;6014;47.690;9.130;2023-07-29T06:02:49;5.85;;;3.08;;
11907;SDS011;6014;47.690;9.130;2023-07-29T06:05:19;5.50;;;3.05;;
11907;SDS011;6014;47.690;9.130;2023-07-29T06:10:24;6.72;;;3.15;;
11907;SDS011;6014;47.690;9.130;2023-07-29T06:12:52;6.15;;;2.78;;
11907;SDS011;6014;47.690;9.130;2023-07-29T06:15:20;4.47;;;2.28;;
11907;SDS011;6014;47.690;9.130;2023-07-29T06:18:07;5.22;;;2.88;;
11907;SDS011;6014;47.690;9.130;2023-07-29T06:20:44;5.50;;;2.75;;
11907;SDS011;6014;47.690;9.130;2023-07-29T06:23:28;5.82;;;2.65;;
11907;SDS011;6014;47.690;9.130;2023-07-29T06:25:58;5.10;;;2.47;;
11907;SDS011;6014;47.690;9.130;2023-07-29T06:28:27;6.93;;;2.45;;
11907;SDS011;6014;47.690;9.130;2023-07-29T06:31:07;5.63;;;2.40;;
11907;SDS011;6014;47.690;9.130;2023-07-29T06:33:44;5.72;;;2.45;;
11907;SDS011;6014;47.690;9.130;2023-07-29T06:36:13;4.38;;;2.33;;
11907;SDS011;6014;47.690;9.130;2023-07-29T06:38:41;7.28;;;2.90;;
11907;SDS011;6014;47.690;9.130;2023-07-29T06:41:10;5.13;;;2.67;;
11907;SDS011;6014;47.690;9.130;2023-07-29T06:43:43;4.78;;;2.50;;
11907;SDS011;6014;47.690;9.130;2023-07-29T06:46:11;5.75;;;2.72;;
11907;SDS011;6014;47.690;9.130;2023-07-29T06:48:39;6.97;;;2.83;;
11907;SDS011;6014;47.690;9.130;2023-07-29T06:51:16;5.50;;;3.00;;
11907;SDS011;6014;47.690;9.130;2023-07-29T06:53:44;4.60;;;2.30;;
11907;SDS011;6014;47.690;9.130;2023-07-29T06:56:13;4.93;;;2.40;;
11907;SDS011;6014;47.690;9.130;2023-07-29T06:58:41;4.00;;;2.17;;
11907;SDS011;6014;47.690;9.130;2023-07-29T07:01:09;6.30;;;2.53;;
11907;SDS011;6014;47.690;9.130;2023-07-29T07:03:37;4.90;;;2.63;;
11907;SDS011;6014;47.690;9.130;2023-07-29T07:06:05;7.60;;;2.38;;
11907;SDS011;6014;47.690;9.130;2023-07-29T07:08:35;4.80;;;2.17;;
11907;SDS011;6014;47.690;9.130;2023-07-29T07:11:03;4.32;;;2.17;;
11907;SDS011;6014;47.690;9.130;2023-07-29T07:13:31;7.13;;;3.08;;
11907;SDS011;6014;47.690;9.130;2023-07-29T07:15:59;4.95;;;2.53;;
11907;SDS011;6014;47.690;9.130;2023-07-29T07:18:28;4.95;;;2.53;;
11907;SDS011;6014;47.690;9.130;2023-07-29T07:20:56;6.43;;;3.00;;
11907;SDS011;6014;47.690;9.130;2023-07-29T07:23:31;5.97;;;2.83;;
11907;SDS011;6014;47.690;9.130;2023-07-29T07:26:00;5.70;;;2.50;;
11907;SDS011;6014;47.690;9.130;2023-07-29T07:28:29;6.32;;;2.60;;
11907;SDS011;6014;47.690;9.130;2023-07-29T07:30:57;6.45;;;2.83;;
11907;SDS011;6014;47.690;9.130;2023-07-29T07:33:25;6.15;;;2.80;;
11907;SDS011;6014;47.690;9.130;2023-07-29T07:35:53;5.05;;;2.33;;
11907;SDS011;6014;47.690;9.130;2023-07-29T07:38:21;5.43;;;2.75;;
11907;SDS011;6014;47.690;9.130;2023-07-29T07:40:53;5.00;;;2.40;;
11907;SDS011;6014;47.690;9.130;2023-07-29T07:43:23;4.63;;;2.63;;
11907;SDS011;6014;47.690;9.130;2023-07-29T07:45:56;5.43;;;2.70;;
11907;SDS011;6014;47.690;9.130;2023-07-29T07:48:25;5.35;;;2.40;;
11907;SDS011;6014;47.690;9.130;2023-07-29T07:50:58;5.43;;;2.88;;
11907;SDS011;6014;47.690;9.130;2023-07-29T07:53:26;5.07;;;2.30;;
11907;SDS011;6014;47.690;9.130;2023-07-29T07:55:54;5.90;;;2.65;;
11907;SDS011;6014;47.690;9.130;2023-07-29T07:58:30;4.78;;;2.72;;
11907;SDS011;6014;47.690;9.130;2023-07-29T08:01:00;5.90;;;2.45;;
11907;SDS011;6014;47.690;9.130;2023-07-29T08:03:29;5.70;;;2.70;;
11907;SDS011;6014;47.690;9.130;2023-07-29T08:05:58;5.07;;;2.55;;
11907;SDS011;6014;47.690;9.130;2023-07-29T08:08:26;5.60;;;2.80;;
11907;SDS011;6014;47.690;9.130;2023-07-29T08:11:12;5.63;;;2.83;;
11907;SDS011;6014;47.690;9.130;2023-07-29T08:13:42;5.25;;;2.63;;
11907;SDS011;6014;47.690;9.130;2023-07-29T08:16:12;4.43;;;2.42;;
11907;SDS011;6014;47.690;9.130;2023-07-29T08:21:41;6.38;;;3.13;;
11907;SDS011;6014;47.690;9.130;2023-07-29T08:24:11;5.60;;;2.85;;
11907;SDS011;6014;47.690;9.130;2023-07-29T08:29:21;5.65;;;2.80;;
11907;SDS011;6014;47.690;9.130;2023-07-29T08:32:01;4.95;;;2.67;;
11907;SDS011;6014;47.690;9.130;2023-07-29T08:37:18;6.68;;;2.65;;
11907;SDS011;6014;47.690;9.130;2023-07-29T08:39:59;4.57;;;2.47;;
11907;SDS011;6014;47.690;9.130;2023-07-29T08:42:45;4.70;;;2.50;;
11907;SDS011;6014;47.690;9.130;2023-07-29T08:48:07;5.05;;;2.80;;
11907;SDS011;6014;47.690;9.130;2023-07-29T08:50:47;5.40;;;3.08;;
11907;SDS011;6014;47.690;9.130;2023-07-29T08:53:19;7.15;;;3.72;;
11907;SDS011;6014;47.690;9.130;2023-07-29T08:55:50;5.75;;;3.22;;
11907;SDS011;6014;47.690;9.130;2023-07-29T08:58:19;6.60;;;3.35;;
11907;SDS011;6014;47.690;9.130;2023-07-29T09:00:49;5.60;;;2.85;;
11907;SDS011;6014;47.690;9.130;2023-07-29T09:03:19;6.50;;;2.80;;
11907;SDS011;6014;47.690;9.130;2023-07-29T09:05:47;5.10;;;2.85;;
11907;SDS011;6014;47.690;9.130;2023-07-29T09:08:16;5.47;;;2.83;;
11907;SDS011;6014;47.690;9.130;2023-07-29T09:10:44;6.22;;;2.95;;
11907;SDS011;6014;47.690;9.130;2023-07-29T09:13:12;6.20;;;3.03;;
11907;SDS011;6014;47.690;9.130;2023-07-29T09:15:40;5.70;;;3.00;;
11907;SDS011;6014;47.690;9.130;2023-07-29T09:18:11;5.20;;;2.83;;
11907;SDS011;6014;47.690;9.130;2023-07-29T09:20:42;5.38;;;2.88;;
11907;SDS011;6014;47.690;9.130;2023-07-29T09:23:10;5.72;;;2.70;;
11907;SDS011;6014;47.690;9.130;2023-07-29T09:25:38;5.93;;;2.70;;
11907;SDS011;6014;47.690;9.130;2023-07-29T09:28:07;7.55;;;2.65;;
11907;SDS011;6014;47.690;9.130;2023-07-29T09:30:38;5.20;;;2.83;;
11907;SDS011;6014;47.690;9.130;2023-07-29T09:33:06;5.45;;;2.83;;
11907;SDS011;6014;47.690;9.130;2023-07-29T09:35:39;6.13;;;2.95;;
11907;SDS011;6014;47.690;9.130;2023-07-29T09:38:14;5.63;;;2.53;;
11907;SDS011;6014;47.690;9.130;2023-07-29T09:40:42;6.03;;;2.67;;
11907;SDS011;6014;47.690;9.130;2023-07-29T09:43:11;5.72;;;3.08;;
11907;SDS011;6014;47.690;9.130;2023-07-29T09:45:39;5.68;;;2.92;;
11907;SDS011;6014;47.690;9.130;2023-07-29T09:48:07;5.13;;;2.53;;
11907;SDS011;6014;47.690;9.130;2023-07-29T09:50:37;4.85;;;2.70;;
11907;SDS011;6014;47.690;9.130;2023-07-29T09:53:06;4.32;;;2.30;;
11907;SDS011;6014;47.690;9.130;2023-07-29T09:55:35;4.50;;;2.53;;
11907;SDS011;6014;47.690;9.130;2023-07-29T09:58:03;4.53;;;2.20;;
11907;SDS011;6014;47.690;9.130;2023-07-29T10:00:34;5.40;;;2.40;;
11907;SDS011;6014;47.690;9.130;2023-07-29T10:03:04;5.10;;;2.40;;
11907;SDS011;6014;47.690;9.130;2023-07-29T10:05:34;4.47;;;2.22;;
11907;SDS011;6014;47.690;9.130;2023-07-29T10:08:02;5.88;;;2.70;;
11907;SDS011;6014;47.690;9.130;2023-07-29T10:10:41;4.45;;;2.30;;
11907;SDS011;6014;47.690;9.130;2023-07-29T10:13:27;5.35;;;2.03;;
11907;SDS011;6014;47.690;9.130;2023-07-29T10:15:57;5.43;;;2.35;;
11907;SDS011;6014;47.690;9.130;2023-07-29T10:18:32;5.15;;;2.40;;
11907;SDS011;6014;47.690;9.130;2023-07-29T10:21:01;4.82;;;2.35;;
11907;SDS011;6014;47.690;9.130;2023-07-29T10:23:32;4.95;;;2.10;;
11907;SDS011;6014;47.690;9.130;2023-07-29T10:26:05;5.10;;;2.38;;
11907;SDS011;6014;47.690;9.130;2023-07-29T10:28:38;5.10;;;2.30;;
11907;SDS011;6014;47.690;9.130;2023-07-29T10:31:10;4.25;;;2.35;;
11907;SDS011;6014;47.690;9.130;2023-07-29T10:33:39;4.93;;;2.40;;
11907;SDS011;6014;47.690;9.130;2023-07-29T10:36:07;6.80;;;2.40;;
11907;SDS011;6014;47.690;9.130;2023-07-29T10:38:36;4.63;;;2.00;;
11907;SDS011;6014;47.690;9.130;2023-07-29T10:43:38;4.10;;;2.00;;
11907;SDS011;6014;47.690;9.130;2023-07-29T10:46:14;3.60;;;1.73;;
11907;SDS011;6014;47.690;9.130;2023-07-29T10:48:44;3.63;;;1.70;;
11907;SDS011;6014;47.690;9.130;2023-07-29T10:51:23;4.35;;;2.10;;
11907;SDS011;6014;47.690;9.130;2023-07-29T10:53:54;3.95;;;1.90;;
11907;SDS011;6014;47.690;9.130;2023-07-29T10:56:27;3.92;;;1.95;;
11907;SDS011;6014;47.690;9.130;2023-07-29T10:59:01;4.68;;;2.08;;
11907;SDS011;6014;47.690;9.130;2023-07-29T11:01:50;4.07;;;1.70;;
11907;SDS011;6014;47.690;9.130;2023-07-29T11:04:24;4.85;;;1.95;;
11907;SDS011;6014;47.690;9.130;2023-07-29T11:10:00;3.53;;;1.80;;
11907;SDS011;6014;47.690;9.130;2023-07-29T11:12:35;4.30;;;1.90;;
11907;SDS011;6014;47.690;9.130;2023-07-29T11:15:15;4.03;;;2.05;;
11907;SDS011;6014;47.690;9.130;2023-07-29T11:17:49;3.47;;;1.85;;
11907;SDS011;6014;47.690;9.130;2023-07-29T11:20:32;4.25;;;2.00;;
11907;SDS011;6014;47.690;9.130;2023-07-29T11:23:02;3.78;;;1.65;;
11907;SDS011;6014;47.690;9.130;2023-07-29T11:25:32;4.63;;;1.90;;
11907;SDS011;6014;47.690;9.130;2023-07-29T11:28:05;6.20;;;2.13;;
11907;SDS011;6014;47.690;9.130;2023-07-29T11:30:34;4.18;;;1.85;;
11907;SDS011;6014;47.690;9.130;2023-07-29T11:33:06;4.20;;;1.70;;
11907;SDS011;6014;47.690;9.130;2023-07-29T11:35:34;4.45;;;2.00;;
11907;SDS011;6014;47.690;9.130;2023-07-29T11:38:14;3.90;;;1.80;;
11907;SDS011;6014;47.690;9.130;2023-07-29T11:40:53;5.43;;;2.17;;
11907;SDS011;6014;47.690;9.130;2023-07-29T11:43:23;3.63;;;1.88;;
11907;SDS011;6014;47.690;9.130;2023-07-29T11:45:53;3.72;;;1.70;;
11907;SDS011;6014;47.690;9.130;2023-07-29T11:48:27;4.50;;;2.10;;
11907;SDS011;6014;47.690;9.130;2023-07-29T11:50:56;3.88;;;1.95;;
11907;SDS011;6014;47.690;9.130;2023-07-29T11:53:26;4.45;;;1.73;;
11907;SDS011;6014;47.690;9.130;2023-07-29T11:55:56;3.72;;;1.83;;
11907;SDS011;6014;47.690;9.130;2023-07-29T11:58:26;4.65;;;2.05;;
11907;SDS011;6014;47.690;9.130;2023-07-29T12:00:54;4.88;;;2.10;;
11907;SDS011;6014;47.690;9.130;2023-07-29T12:03:25;3.47;;;1.80;;
11907;SDS011;6014;47.690;9.130;2023-07-29T12:05:54;3.28;;;1.73;;
11907;SDS011;6014;47.690;9.130;2023-07-29T12:08:22;3.65;;;1.85;;
11907;SDS011;6014;47.690;9.130;2023-07-29T12:10:51;4.60;;;2.13;;
11907;SDS011;6014;47.690;9.130;2023-07-29T12:13:23;3.78;;;1.70;;
11907;SDS011;6014;47.690;9.130;2023-07-29T12:15:53;3.55;;;2.00;;
11907;SDS011;6014;47.690;9.130;2023-07-29T12:18:29;5.07;;;2.17;;
11907;SDS011;6014;47.690;9.130;2023-07-29T12:20:58;5.15;;;2.22;;
11907;SDS011;6014;47.690;9.130;2023-07-29T12:23:26;4.75;;;2.00;;
11907;SDS011;6014;47.690;9.130;2023-07-29T12:25:56;4.70;;;1.70;;
11907;SDS011;6014;47.690;9.130;2023-07-29T12:28:25;3.70;;;1.85;;
11907;SDS011;6014;47.690;9.130;2023-07-29T12:30:55;3.53;;;1.92;;
11907;SDS011;6014;47.690;9.130;2023-07-29T12:33:33;6.90;;;2.33;;
11907;SDS011;6014;47.690;9.130;2023-07-29T12:36:02;4.25;;;1.98;;
11907;SDS011;6014;47.690;9.130;2023-07-29T12:38:37;5.47;;;2.50;;
11907;SDS011;6014;47.690;9.130;2023-07-29T12:41:05;3.90;;;2.05;;
11907;SDS011;6014;47.690;9.130;2023-07-29T12:43:33;5.22;;;2.38;;
11907;SDS011;6014;47.690;9.130;2023-07-29T12:46:03;4.88;;;2.47;;
11907;SDS011;6014;47.690;9.130;2023-07-29T12:48:34;5.07;;;2.72;;
11907;SDS011;6014;47.690;9.130;2023-07-29T12:51:02;5.00;;;2.60;;
11907;SDS011;6014;47.690;9.130;2023-07-29T12:53:30;4.45;;;2.30;;
11907;SDS011;6014;47.690;9.130;2023-07-29T12:55:58;5.65;;;2.85;;
11907;SDS011;6014;47.690;9.130;2023-07-29T12:58:28;4.78;;;2.20;;
11907;SDS011;6014;47.690;9.130;2023-07-29T13:00:56;6.43;;;2.90;;
11907;SDS011;6014;47.690;9.130;2023-07-29T13:03:34;4.97;;;2.70;;
11907;SDS011;6014;47.690;9.130;2023-07-29T13:06:02;5.47;;;2.25;;
11907;SDS011;6014;47.690;9.130;2023-07-29T13:08:31;6.93;;;2.42;;
11907;SDS011;6014;47.690;9.130;2023-07-29T13:10:59;4.40;;;2.17;;
11907;SDS011;6014;47.690;9.130;2023-07-29T13:13:27;4.40;;;2.30;;
11907;SDS011;6014;47.690;9.130;2023-07-29T13:16:03;4.57;;;1.95;;
11907;SDS011;6014;47.690;9.130;2023-07-29T13:18:32;6.22;;;2.40;;
11907;SDS011;6014;47.690;9.130;2023-07-29T13:21:02;4.53;;;2.30;;
11907;SDS011;6014;47.690;9.130;2023-07-29T13:23:30;13.57;;;2.95;;
11907;SDS011;6014;47.690;9.130;2023-07-29T13:26:00;5.38;;;2.30;;
11907;SDS011;6014;47.690;9.130;2023-07-29T13:28:30;5.35;;;2.55;;
11907;SDS011;6014;47.690;9.130;2023-07-29T13:30:59;5.28;;;2.30;;
11907;SDS011;6014;47.690;9.130;2023-07-29T13:33:31;7.75;;;2.78;;
11907;SDS011;6014;47.690;9.130;2023-07-29T13:36:01;5.10;;;2.60;;
11907;SDS011;6014;47.690;9.130;2023-07-29T13:38:30;4.13;;;2.10;;
11907;SDS011;6014;47.690;9.130;2023-07-29T13:41:06;4.32;;;2.13;;
11907;SDS011;6014;47.690;9.130;2023-07-29T13:43:36;3.97;;;2.17;;
11907;SDS011;6014;47.690;9.130;2023-07-29T13:46:04;4.78;;;2.08;;
11907;SDS011;6014;47.690;9.130;2023-07-29T13:48:33;5.30;;;2.10;;
11907;SDS011;6014;47.690;9.130;2023-07-29T13:51:03;4.05;;;2.20;;
11907;SDS011;6014;47.690;9.130;2023-07-29T13:53:39;4.15;;;2.10;;
11907;SDS011;6014;47.690;9.130;2023-07-29T13:56:07;4.50;;;1.88;;
11907;SDS011;6014;47.690;9.130;2023-07-29T13:58:36;3.53;;;1.90;;
11907;SDS011;6014;47.690;9.130;2023-07-29T14:01:05;3.30;;;1.50;;
11907;SDS011;6014;47.690;9.130;2023-07-29T14:03:33;4.43;;;2.20;;
11907;SDS011;6014;47.690;9.130;2023-07-29T14:06:04;4.55;;;1.90;;
11907;SDS011;6014;47.690;9.130;2023-07-29T14:08:33;3.95;;;2.03;;
11907;SDS011;6014;47.690;9.130;2023-07-29T14:11:01;4.22;;;2.25;;
11907;SDS011;6014;47.690;9.130;2023-07-29T14:13:38;5.00;;;1.85;;
11907;SDS011;6014;47.690;9.130;2023-07-29T14:16:07;4.57;;;2.03;;
11907;SDS011;6014;47.690;9.130;2023-07-29T14:18:35;2.17;;;1.52;;
11907;SDS011;6014;47.690;9.130;2023-07-29T14:21:15;6.82;;;3.45;;
11907;SDS011;6014;47.690;9.130;2023-07-29T14:23:44;3.90;;;2.00;;
11907;SDS011;6014;47.690;9.130;2023-07-29T14:26:12;3.92;;;1.70;;
11907;SDS011;6014;47.690;9.130;2023-07-29T14:28:41;6.05;;;2.03;;
11907;SDS011;6014;47.690;9.130;2023-07-29T14:31:13;4.35;;;1.92;;
11907;SDS011;6014;47.690;9.130;2023-07-29T14:33:43;3.45;;;1.80;;
11907;SDS011;6014;47.690;9.130;2023-07-29T14:36:11;5.60;;;2.20;;
11907;SDS011;6014;47.690;9.130;2023-07-29T14:38:44;4.95;;;2.20;;
11907;SDS011;6014;47.690;9.130;2023-07-29T14:41:13;4.13;;;2.00;;
11907;SDS011;6014;47.690;9.130;2023-07-29T14:43:42;5.20;;;2.40;;
11907;SDS011;6014;47.690;9.130;2023-07-29T14:46:10;3.75;;;2.08;;
11907;SDS011;6014;47.690;9.130;2023-07-29T14:48:38;4.28;;;2.28;;
11907;SDS011;6014;47.690;9.130;2023-07-29T14:51:06;4.10;;;2.20;;
11907;SDS011;6014;47.690;9.130;2023-07-29T14:53:34;5.25;;;2.15;;
11907;SDS011;6014;47.690;9.130;2023-07-29T14:56:04;3.17;;;1.70;;
11907;SDS011;6014;47.690;9.130;2023-07-29T14:58:32;4.35;;;2.00;;
11907;SDS011;6014;47.690;9.130;2023-07-29T15:01:00;5.78;;;1.83;;
11907;SDS011;6014;47.690;9.130;2023-07-29T15:03:28;3.97;;;1.88;;
11907;SDS011;6014;47.690;9.130;2023-07-29T15:05:56;4.70;;;2.17;;
11907;SDS011;6014;47.690;9.130;2023-07-29T15:08:30;3.85;;;2.20;;
11907;SDS011;6014;47.690;9.130;2023-07-29T15:11:00;4.88;;;2.55;;
11907;SDS011;6014;47.690;9.130;2023-07-29T15:13:31;5.68;;;2.38;;
11907;SDS011;6014;47.690;9.130;2023-07-29T15:16:02;4.65;;;2.20;;
11907;SDS011;6014;47.690;9.130;2023-07-29T15:18:32;4.85;;;2.55;;
11907;SDS011;6014;47.690;9.130;2023-07-29T15:21:00;4.80;;;2.40;;
11907;SDS011;6014;47.690;9.130;2023-07-29T15:23:29;4.30;;;2.38;;
11907;SDS011;6014;47.690;9.130;2023-07-29T15:25:57;4.53;;;2.45;;
11907;SDS011;6014;47.690;9.130;2023-07-29T15:28:25;4.40;;;2.20;;
11907;SDS011;6014;47.690;9.130;2023-07-29T15:30:55;5.07;;;2.47;;
11907;SDS011;6014;47.690;9.130;2023-07-29T15:33:23;5.60;;;2.17;;
11907;SDS011;6014;47.690;9.130;2023-07-29T15:35:52;4.97;;;2.50;;
11907;SDS011;6014;47.690;9.130;2023-07-29T15:38:26;5.95;;;2.83;;
11907;SDS011;6014;47.690;9.130;2023-07-29T15:40:54;5.32;;;2.60;;
11907;SDS011;6014;47.690;9.130;2023-07-29T15:43:23;4.93;;;2.47;;
11907;SDS011;6014;47.690;9.130;2023-07-29T15:45:55;3.92;;;2.08;;
11907;SDS011;6014;47.690;9.130;2023-07-29T15:48:24;4.60;;;2.28;;